Time;durP1;ratioP1;P1;durP2;ratioP2;P2;SDS_P1;SDS_P2;PMS_P1;PMS_P2;Temp;Humidity;BMP_temperature;BMP_pressure;BME280_temperature;BME280_humidity;BME280_pressure;Samples;Min_cycle;Max_cycle;Signal;HPM_P1;HPM_P2
2022/09/29 00:00:21;;;;;;;0.70;0.70;;;10.10;99.90;;;;;;6042871;23;20019;-91
2022/09/29 00:02:46;;;;;;;1.65;0.75;;;10.10;99.90;;;;;;6068011;23;20089;-92
2022/09/29 00:05:12;;;;;;;0.80;0.80;;;10.10;99.90;;;;;;6042894;23;20016;-92
2022/09/29 00:07:38;;;;;;;0.73;0.70;;;10.20;99.90;;;;;;6043007;23;20011;-91
2022/09/29 00:10:04;;;;;;;1.88;1.05;;;10.20;99.90;;;;;;6042906;23;20066;-90
2022/09/29 00:12:29;;;;;;;1.27;0.85;;;10.20;99.90;;;;;;6042733;23;20054;-91
2022/09/29 00:14:55;;;;;;;0.75;0.63;;;10.20;99.90;;;;;;6043041;23;20051;-90
2022/09/29 00:17:21;;;;;;;0.50;0.50;;;10.30;99.90;;;;;;6043103;23;20007;-90
2022/09/29 00:19:46;;;;;;;1.95;0.70;;;10.30;99.90;;;;;;6068146;23;20022;-88
2022/09/29 00:22:12;;;;;;;1.52;0.75;;;10.20;99.90;;;;;;6042856;23;20507;-90
2022/09/29 00:24:38;;;;;;;0.68;0.63;;;10.20;99.90;;;;;;6043231;23;20479;-90
2022/09/29 00:27:04;;;;;;;1.25;0.82;;;10.30;99.90;;;;;;6043232;23;20007;-89
2022/09/29 00:29:29;;;;;;;0.77;0.60;;;10.20;99.90;;;;;;6051200;23;20022;-91
2022/09/29 00:31:55;;;;;;;0.50;0.50;;;10.20;99.90;;;;;;6067152;23;20396;-91
2022/09/29 00:34:21;;;;;;;0.70;0.70;;;10.20;99.90;;;;;;6066727;23;20434;-90
2022/09/29 00:36:46;;;;;;;0.60;0.60;;;10.20;99.90;;;;;;6068073;23;20431;-91
2022/09/29 00:39:12;;;;;;;0.70;0.60;;;10.20;99.90;;;;;;6067961;23;20011;-92
2022/09/29 00:41:40;;;;;;;1.13;0.60;;;10.20;99.90;;;;;;6066847;23;20427;-91
2022/09/29 00:44:45;;;;;;;0.43;0.43;;;10.20;99.90;;;;;;6066491;23;20007;-90
2022/09/29 00:47:16;;;;;;;1.48;0.68;;;10.20;99.90;;;;;;6022851;23;20019;-90
2022/09/29 00:49:50;;;;;;;2.00;0.68;;;10.20;99.90;;;;;;6066750;23;20014;-91
2022/09/29 00:52:28;;;;;;;0.88;0.65;;;10.20;99.90;;;;;;6066913;23;20021;-92
2022/09/29 00:55:01;;;;;;;0.70;0.40;;;10.20;99.90;;;;;;6066752;23;20006;-91
2022/09/29 00:57:36;;;;;;;1.38;0.50;;;10.30;99.90;;;;;;6066562;23;20015;-91
2022/09/29 01:00:07;;;;;;;2.05;0.60;;;10.20;99.90;;;;;;6067820;23;20353;-91
2022/09/29 01:02:37;;;;;;;3.58;0.90;;;10.30;99.90;;;;;;6066874;23;20006;-91
2022/09/29 01:05:07;;;;;;;1.48;0.75;;;10.20;99.90;;;;;;6066848;23;20013;-90
2022/09/29 01:07:33;;;;;;;1.88;0.90;;;10.20;99.90;;;;;;6066077;23;20200;-89
2022/09/29 01:09:59;;;;;;;4.13;0.70;;;10.20;99.90;;;;;;6068206;23;20010;-89
2022/09/29 01:12:25;;;;;;;6.28;0.90;;;10.20;99.90;;;;;;6068200;23;20392;-91
2022/09/29 01:14:53;;;;;;;3.65;1.20;;;10.20;99.90;;;;;;6067195;23;20046;-91
2022/09/29 01:17:19;;;;;;;2.53;0.77;;;10.20;99.90;;;;;;6069661;23;20502;-91
2022/09/29 01:20:12;;;;;;;4.68;0.85;;;10.20;99.90;;;;;;6092671;23;20022;-90
2022/09/29 01:22:43;;;;;;;4.45;1.30;;;10.20;99.90;;;;;;6068380;23;20061;-93
2022/09/29 01:25:09;;;;;;;6.55;1.20;;;10.20;99.90;;;;;;6068596;23;20007;-92
2022/09/29 01:27:43;;;;;;;7.07;1.00;;;10.20;99.90;;;;;;6068253;23;20398;-92
2022/09/29 01:30:30;;;;;;;3.35;0.93;;;10.20;99.90;;;;;;6069411;23;20014;-91
2022/09/29 01:33:31;;;;;;;3.38;0.90;;;10.20;99.90;;;;;;6070586;23;20074;-91
2022/09/29 01:36:04;;;;;;;4.07;0.98;;;10.20;99.90;;;;;;6044378;23;20014;-89
2022/09/29 01:38:36;;;;;;;5.07;0.90;;;10.30;99.90;;;;;;6070054;23;20007;-92
2022/09/29 01:41:10;;;;;;;4.82;0.90;;;10.30;99.90;;;;;;6044252;23;20029;-90
2022/09/29 01:43:45;;;;;;;6.10;1.00;;;10.30;99.90;;;;;;6044462;23;20010;-91
2022/09/29 01:46:35;;;;;;;5.97;0.90;;;10.30;99.90;;;;;;6070842;23;20050;-91
2022/09/29 01:49:02;;;;;;;4.97;0.80;;;10.30;99.90;;;;;;6070470;23;20070;-91
2022/09/29 01:51:37;;;;;;;9.30;1.30;;;10.30;99.90;;;;;;6069725;23;20010;-93
2022/09/29 01:54:11;;;;;;;3.80;0.93;;;10.40;99.90;;;;;;6070376;23;20009;-91
2022/09/29 01:56:44;;;;;;;15.52;1.70;;;10.40;99.90;;;;;;6044165;23;20049;-93
2022/09/29 01:59:25;;;;;;;6.28;0.98;;;10.40;99.90;;;;;;6044698;23;20037;-93
2022/09/29 02:01:57;;;;;;;6.43;1.02;;;10.40;99.90;;;;;;6044940;23;20043;-94
2022/09/29 02:04:39;;;;;;;3.50;1.08;;;10.40;99.90;;;;;;6045019;23;20006;-92
2022/09/29 02:07:15;;;;;;;6.88;1.00;;;10.40;99.90;;;;;;6044193;23;20490;-93
2022/09/29 02:09:45;;;;;;;8.68;0.82;;;10.50;99.90;;;;;;6043476;23;20011;-92
2022/09/29 02:12:15;;;;;;;6.90;0.98;;;10.40;99.90;;;;;;6069512;23;20013;-93
2022/09/29 02:14:45;;;;;;;7.65;1.30;;;10.50;99.90;;;;;;6044264;23;20014;-93
2022/09/29 02:17:21;;;;;;;2.75;0.75;;;10.40;99.90;;;;;;6068516;23;20491;-93
2022/09/29 02:19:50;;;;;;;2.05;0.80;;;10.50;99.90;;;;;;6043709;23;20021;-93
2022/09/29 02:22:17;;;;;;;9.10;1.20;;;10.50;99.90;;;;;;6044229;23;20340;-92
2022/09/29 02:24:43;;;;;;;5.22;0.68;;;10.50;99.90;;;;;;6044018;23;20021;-91
2022/09/29 02:27:09;;;;;;;4.75;1.20;;;10.50;99.90;;;;;;6069229;23;20070;-91
2022/09/29 02:29:36;;;;;;;4.95;0.80;;;10.50;99.90;;;;;;6069558;23;20015;-93
2022/09/29 02:32:05;;;;;;;5.07;1.00;;;10.50;99.90;;;;;;6047069;23;20037;-94
2022/09/29 02:34:35;;;;;;;7.47;1.00;;;10.50;99.90;;;;;;6046664;23;20419;-95
2022/09/29 02:37:19;;;;;;;5.88;1.40;;;10.60;99.90;;;;;;6072705;23;20018;-95
2022/09/29 02:39:57;;;;;;;6.05;1.27;;;10.60;99.90;;;;;;6071927;23;20089;-92
2022/09/29 02:42:54;;;;;;;4.93;1.33;;;10.60;99.90;;;;;;6050684;23;20007;-95
2022/09/29 02:45:20;;;;;;;3.78;0.80;;;10.60;99.90;;;;;;6054013;23;20443;-94
2022/09/29 02:47:49;;;;;;;6.60;1.42;;;10.60;99.90;;;;;;6054310;23;20010;-93
2022/09/29 02:50:32;;;;;;;2.78;1.10;;;10.60;99.90;;;;;;6066012;23;20011;-91
2022/09/29 02:53:17;;;;;;;6.75;1.63;;;10.70;99.90;;;;;;6094455;23;19991;-91
2022/09/29 02:56:22;;;;;;;4.85;1.25;;;10.70;99.90;;;;;;6089587;23;20011;-94
2022/09/29 02:59:02;;;;;;;2.30;1.08;;;10.70;99.90;;;;;;6043652;23;20388;-92
2022/09/29 03:01:32;;;;;;;;;;;10.70;99.90;;;;;;6040969;23;20021;-93
2022/09/29 03:03:58;;;;;;;4.65;1.13;;;10.60;99.90;;;;;;6069689;23;19902;-91
2022/09/29 03:06:23;;;;;;;4.75;1.42;;;10.60;99.90;;;;;;6044336;23;20007;-92
2022/09/29 03:08:49;;;;;;;5.80;1.13;;;10.60;99.90;;;;;;6069131;23;20010;-90
2022/09/29 03:11:15;;;;;;;3.10;1.10;;;10.70;99.90;;;;;;6068798;23;20007;-92
2022/09/29 03:13:41;;;;;;;4.88;1.20;;;10.60;99.90;;;;;;6068975;23;20006;-92
2022/09/29 03:16:06;;;;;;;6.07;1.13;;;10.60;99.90;;;;;;6043536;23;20022;-92
2022/09/29 03:18:32;;;;;;;6.22;1.40;;;10.70;99.90;;;;;;6068879;23;20003;-93
2022/09/29 03:20:58;;;;;;;4.85;0.80;;;10.70;99.90;;;;;;6043757;23;20018;-91
2022/09/29 03:23:23;;;;;;;6.28;1.10;;;10.70;99.90;;;;;;6042539;23;20006;-91
2022/09/29 03:25:49;;;;;;;5.90;1.00;;;10.70;99.90;;;;;;6044084;23;20014;-92
2022/09/29 03:28:15;;;;;;;8.88;1.33;;;10.70;99.90;;;;;;6043265;23;20086;-93
2022/09/29 03:30:41;;;;;;;6.43;1.00;;;10.70;99.90;;;;;;6066710;23;20026;-91
2022/09/29 03:33:07;;;;;;;5.15;0.70;;;10.70;99.90;;;;;;6069120;23;20022;-94
2022/09/29 03:35:32;;;;;;;2.72;0.95;;;10.70;99.90;;;;;;6067546;23;20010;-94
2022/09/29 03:37:59;;;;;;;1.88;0.80;;;10.70;99.90;;;;;;6068199;23;20038;-92
2022/09/29 03:40:26;;;;;;;4.68;0.93;;;10.70;99.90;;;;;;6068902;23;20025;-92
2022/09/29 03:42:51;;;;;;;10.63;1.40;;;10.70;99.90;;;;;;6070002;23;20506;-92
2022/09/29 03:45:17;;;;;;;4.10;1.10;;;10.70;99.90;;;;;;6068309;23;20029;-91
2022/09/29 03:47:43;;;;;;;2.15;0.77;;;10.70;99.90;;;;;;6067607;23;20078;-93
2022/09/29 03:50:08;;;;;;;3.35;0.90;;;10.80;99.90;;;;;;6066666;23;20102;-93
2022/09/29 03:52:34;;;;;;;6.25;0.82;;;10.70;99.90;;;;;;6067805;23;20047;-91
2022/09/29 03:55:00;;;;;;;5.05;0.95;;;10.70;99.90;;;;;;6066804;23;20423;-91
2022/09/29 03:57:25;;;;;;;4.22;1.08;;;10.70;99.90;;;;;;6067798;23;20069;-90
2022/09/29 03:59:52;;;;;;;5.57;0.85;;;10.70;99.90;;;;;;6067661;23;20019;-91
2022/09/29 04:02:18;;;;;;;2.58;1.02;;;10.70;99.90;;;;;;6068006;23;20399;-89
2022/09/29 04:04:44;;;;;;;8.43;1.27;;;10.70;99.90;;;;;;6067827;23;20380;-91
2022/09/29 04:07:10;;;;;;;6.82;1.08;;;10.70;99.90;;;;;;6066300;23;20007;-91
2022/09/29 04:09:37;;;;;;;3.10;0.88;;;10.70;99.90;;;;;;6066730;23;20011;-92
2022/09/29 04:12:03;;;;;;;7.22;0.85;;;10.70;99.90;;;;;;6067644;23;20423;-93
2022/09/29 04:14:28;;;;;;;5.55;0.80;;;10.70;99.90;;;;;;6066676;23;20127;-92
2022/09/29 04:16:54;;;;;;;6.72;0.88;;;10.60;99.90;;;;;;6066430;23;20013;-93
2022/09/29 04:19:20;;;;;;;5.25;1.10;;;10.60;99.90;;;;;;6067753;23;20010;-92
2022/09/29 04:21:45;;;;;;;5.53;0.80;;;10.60;99.90;;;;;;6067605;23;20011;-90
2022/09/29 04:24:11;;;;;;;2.80;1.00;;;10.60;99.90;;;;;;6066333;23;20011;-91
2022/09/29 04:26:38;;;;;;;3.55;0.75;;;10.60;99.90;;;;;;6066744;23;20007;-91
2022/09/29 04:29:04;;;;;;;7.50;0.95;;;10.60;99.90;;;;;;6066505;23;20150;-90
2022/09/29 04:31:30;;;;;;;3.42;0.98;;;10.60;99.90;;;;;;6069442;23;20006;-91
2022/09/29 04:33:56;;;;;;;13.52;1.42;;;10.60;99.90;;;;;;6076252;23;20059;-92
2022/09/29 04:36:22;;;;;;;7.30;1.00;;;10.60;99.90;;;;;;6069839;23;20011;-91
2022/09/29 04:38:50;;;;;;;5.15;1.00;;;10.60;99.90;;;;;;6067781;23;20006;-91
2022/09/29 04:41:16;;;;;;;6.90;1.17;;;10.60;99.90;;;;;;6066562;23;20014;-89
2022/09/29 04:43:42;;;;;;;5.07;1.20;;;10.60;99.90;;;;;;6067480;23;20019;-92
2022/09/29 04:46:08;;;;;;;6.45;1.40;;;10.60;99.90;;;;;;6067445;23;20006;-91
2022/09/29 04:48:35;;;;;;;2.95;0.95;;;10.60;99.90;;;;;;6090185;23;20010;-93
2022/09/29 04:51:01;;;;;;;4.95;1.00;;;10.60;99.90;;;;;;6068438;23;20011;-93
2022/09/29 04:53:27;;;;;;;2.20;0.68;;;10.60;99.90;;;;;;6069896;23;20015;-93
2022/09/29 04:55:53;;;;;;;6.05;1.02;;;10.60;99.90;;;;;;6069664;23;20065;-91
2022/09/29 04:58:18;;;;;;;4.35;0.70;;;10.60;99.90;;;;;;6068172;23;20077;-92
2022/09/29 05:00:44;;;;;;;5.38;0.77;;;10.60;99.90;;;;;;6068168;23;20010;-92
2022/09/29 05:03:10;;;;;;;4.25;0.80;;;10.60;99.90;;;;;;6068391;23;20027;-92
2022/09/29 05:05:35;;;;;;;2.38;0.60;;;10.60;99.90;;;;;;6068230;23;20086;-92
2022/09/29 05:08:05;;;;;;;3.67;0.75;;;10.60;99.90;;;;;;6067892;23;20011;-92
2022/09/29 05:10:31;;;;;;;5.70;1.17;;;10.60;99.90;;;;;;6068349;23;20381;-91
2022/09/29 05:12:57;;;;;;;5.03;0.95;;;10.60;99.90;;;;;;6067872;23;20034;-91
2022/09/29 05:15:23;;;;;;;4.32;0.90;;;10.60;99.90;;;;;;6068457;23;20041;-92
2022/09/29 05:17:48;;;;;;;2.45;0.77;;;10.60;99.90;;;;;;6069549;23;20003;-92
2022/09/29 05:20:15;;;;;;;5.65;0.70;;;10.60;99.90;;;;;;6069118;23;20026;-91
2022/09/29 05:22:42;;;;;;;4.25;0.93;;;10.50;99.90;;;;;;6068414;23;20010;-92
2022/09/29 05:25:08;;;;;;;6.07;1.02;;;10.50;99.90;;;;;;6067882;23;20014;-91
2022/09/29 05:27:37;;;;;;;5.90;1.10;;;10.50;99.90;;;;;;6069215;23;20078;-91
2022/09/29 05:30:04;;;;;;;3.05;0.80;;;10.50;99.90;;;;;;6069108;23;20439;-91
2022/09/29 05:32:29;;;;;;;6.47;1.15;;;10.60;99.90;;;;;;6069470;23;20431;-92
2022/09/29 05:34:56;;;;;;;1.35;0.70;;;10.60;99.90;;;;;;6069158;23;20003;-91
2022/09/29 05:37:21;;;;;;;5.85;0.90;;;10.60;99.90;;;;;;6044018;23;20062;-92
2022/09/29 05:39:47;;;;;;;3.67;0.80;;;10.60;99.90;;;;;;6069463;23;20011;-93
2022/09/29 05:42:13;;;;;;;7.85;1.30;;;10.60;99.90;;;;;;6044383;23;20562;-93
2022/09/29 05:44:38;;;;;;;2.88;0.98;;;10.60;99.90;;;;;;6069565;23;19998;-91
2022/09/29 05:47:04;;;;;;;5.57;1.50;;;10.50;99.90;;;;;;6068949;23;20010;-92
2022/09/29 05:49:31;;;;;;;6.20;1.40;;;10.60;99.90;;;;;;6069023;23;20011;-90
2022/09/29 05:51:57;;;;;;;3.58;1.77;;;10.60;99.90;;;;;;6044452;23;20013;-93
2022/09/29 05:54:24;;;;;;;4.93;1.40;;;10.60;99.90;;;;;;6069405;23;20443;-93
2022/09/29 05:56:49;;;;;;;6.03;1.30;;;10.60;99.90;;;;;;6069221;23;20003;-91
2022/09/29 05:59:15;;;;;;;4.60;1.27;;;10.60;99.90;;;;;;6043868;23;20014;-92
2022/09/29 06:01:41;;;;;;;5.43;2.13;;;10.50;99.90;;;;;;6043313;23;20007;-92
2022/09/29 06:04:06;;;;;;;8.48;2.13;;;10.60;99.90;;;;;;6043731;23;20029;-92
2022/09/29 06:06:35;;;;;;;5.65;1.33;;;10.60;99.90;;;;;;6044401;23;20441;-92
2022/09/29 06:09:01;;;;;;;2.67;1.70;;;10.60;99.90;;;;;;6043720;23;20078;-94
2022/09/29 06:11:30;;;;;;;5.57;1.23;;;10.60;99.90;;;;;;6068814;23;20446;-90
2022/09/29 06:13:56;;;;;;;6.75;2.08;;;10.60;99.90;;;;;;6069019;23;20002;-91
2022/09/29 06:16:24;;;;;;;6.40;1.35;;;10.60;99.90;;;;;;6068758;23;20054;-93
2022/09/29 06:18:50;;;;;;;4.65;1.20;;;10.60;99.90;;;;;;6069197;23;19998;-92
2022/09/29 06:21:19;;;;;;;6.38;1.20;;;10.60;99.90;;;;;;6068801;23;20021;-91
2022/09/29 06:23:45;;;;;;;6.55;1.52;;;10.60;99.90;;;;;;6043604;23;20003;-92
2022/09/29 06:26:13;;;;;;;6.43;1.50;;;10.60;99.90;;;;;;6068802;23;20025;-91
2022/09/29 06:28:39;;;;;;;5.13;1.05;;;10.60;99.90;;;;;;6043209;23;20031;-90
2022/09/29 06:31:08;;;;;;;5.80;1.42;;;10.60;99.90;;;;;;6042646;23;20011;-90
2022/09/29 06:33:35;;;;;;;3.72;1.27;;;10.60;99.90;;;;;;6042657;23;20013;-90
2022/09/29 06:38:50;;;;;;;4.28;1.05;;;10.60;99.90;;;;;;6068351;23;20025;-91
2022/09/29 06:41:16;;;;;;;4.72;1.08;;;10.60;99.90;;;;;;6042767;23;20018;-90
2022/09/29 06:43:41;;;;;;;8.70;1.58;;;10.70;99.90;;;;;;6042718;23;20011;-91
2022/09/29 06:46:07;;;;;;;7.70;1.40;;;10.70;99.90;;;;;;6042481;23;20011;-87
2022/09/29 06:48:33;;;;;;;4.80;1.20;;;10.70;99.90;;;;;;6042249;23;20013;-89
2022/09/29 06:50:59;;;;;;;7.15;1.08;;;10.70;99.90;;;;;;6042588;23;20014;-90
2022/09/29 06:53:25;;;;;;;4.63;1.00;;;10.70;99.90;;;;;;6069046;23;20007;-89
2022/09/29 06:55:59;;;;;;;7.45;1.42;;;10.70;99.90;;;;;;6044245;23;20043;-91
2022/09/29 06:58:25;;;;;;;6.57;1.10;;;10.70;99.90;;;;;;6044094;23;20005;-91
2022/09/29 07:00:51;;;;;;;5.30;1.30;;;10.70;99.90;;;;;;6043796;23;20022;-92
2022/09/29 07:03:17;;;;;;;7.05;0.93;;;10.70;99.90;;;;;;6044290;23;20011;-92
2022/09/29 07:05:42;;;;;;;4.55;1.20;;;10.70;99.90;;;;;;6044334;23;20011;-91
2022/09/29 07:08:08;;;;;;;5.88;0.98;;;10.70;99.90;;;;;;6043717;23;20007;-91
2022/09/29 07:10:34;;;;;;;3.58;0.95;;;10.70;99.90;;;;;;6043799;23;20006;-92
2022/09/29 07:13:00;;;;;;;9.90;1.45;;;10.70;99.90;;;;;;6068454;23;20003;-91
2022/09/29 07:15:31;;;;;;;4.63;1.05;;;10.70;99.90;;;;;;6042527;23;20018;-89
2022/09/29 07:17:59;;;;;;;3.83;1.15;;;10.70;99.90;;;;;;6068196;23;20002;-91
2022/09/29 07:20:25;;;;;;;7.50;1.30;;;10.70;99.90;;;;;;6043444;23;20498;-90
2022/09/29 07:22:52;;;;;;;4.32;1.30;;;10.80;99.90;;;;;;6043767;23;20013;-90
2022/09/29 07:25:18;;;;;;;7.63;1.20;;;10.80;99.90;;;;;;6044066;23;19999;-91
2022/09/29 07:27:44;;;;;;;3.45;0.80;;;10.90;99.90;;;;;;6043926;23;20019;-90
2022/09/29 07:30:10;;;;;;;2.63;1.00;;;10.90;99.90;;;;;;6061513;23;20015;-91
2022/09/29 07:32:36;;;;;;;3.58;1.45;;;10.90;99.90;;;;;;6068523;23;20033;-92
2022/09/29 07:35:02;;;;;;;5.53;1.15;;;11.00;99.90;;;;;;6070897;23;20014;-92
2022/09/29 07:37:28;;;;;;;9.13;1.33;;;11.00;99.90;;;;;;6069069;23;20003;-92
2022/09/29 07:39:54;;;;;;;6.72;1.33;;;11.00;99.90;;;;;;6069817;23;20011;-91
2022/09/29 07:42:20;;;;;;;7.43;1.63;;;11.10;99.90;;;;;;6072118;23;20017;-92
2022/09/29 07:44:46;;;;;;;3.65;1.23;;;11.10;99.90;;;;;;6073680;23;20003;-93
2022/09/29 07:47:13;;;;;;;7.13;0.90;;;11.10;99.90;;;;;;6090772;23;20007;-91
2022/09/29 07:49:40;;;;;;;6.47;1.23;;;11.10;99.90;;;;;;6090269;23;20056;-91
2022/09/29 07:52:05;;;;;;;9.38;1.55;;;11.20;99.90;;;;;;6082383;23;20423;-91
2022/09/29 07:54:32;;;;;;;4.25;1.20;;;11.10;99.90;;;;;;6071365;23;20023;-91
2022/09/29 07:56:59;;;;;;;6.80;1.20;;;11.10;99.90;;;;;;6067661;23;20380;-89
2022/09/29 07:59:26;;;;;;;5.88;1.45;;;11.10;99.90;;;;;;6068656;23;20038;-90
2022/09/29 08:01:52;;;;;;;6.13;1.00;;;11.10;99.90;;;;;;6067753;23;20007;-88
2022/09/29 08:04:18;;;;;;;6.53;1.15;;;11.10;99.90;;;;;;6067559;23;20135;-89
2022/09/29 08:06:45;;;;;;;8.35;1.60;;;11.10;99.90;;;;;;6066962;23;20007;-90
2022/09/29 08:09:11;;;;;;;3.80;1.00;;;11.10;99.90;;;;;;6065684;23;20075;-89
2022/09/29 08:11:39;;;;;;;3.55;0.52;;;11.20;99.90;;;;;;6066356;23;20010;-89
2022/09/29 08:14:05;;;;;;;4.15;0.70;;;11.20;99.90;;;;;;6065316;23;20003;-90
2022/09/29 08:16:33;;;;;;;3.50;0.85;;;11.30;99.90;;;;;;6061682;23;20014;-90
2022/09/29 08:19:00;;;;;;;2.40;0.60;;;11.30;99.90;;;;;;6067496;23;20117;-90
2022/09/29 08:21:26;;;;;;;3.55;0.90;;;11.40;99.90;;;;;;6065747;23;20265;-90
2022/09/29 08:23:52;;;;;;;4.93;0.85;;;11.40;99.90;;;;;;6066227;23;20013;-90
2022/09/29 08:26:20;;;;;;;4.47;0.60;;;11.40;99.90;;;;;;6068653;23;20334;-89
2022/09/29 08:28:46;;;;;;;4.60;0.85;;;11.50;99.90;;;;;;6091861;23;20010;-91
2022/09/29 08:31:20;;;;;;;7.60;1.55;;;11.50;99.90;;;;;;6068918;23;20007;-89
2022/09/29 08:33:48;;;;;;;3.20;0.60;;;11.60;99.90;;;;;;6068646;23;20007;-90
2022/09/29 08:36:15;;;;;;;4.25;0.90;;;11.70;99.90;;;;;;6068129;23;20010;-90
2022/09/29 08:38:46;;;;;;;3.67;0.80;;;11.80;99.90;;;;;;6069374;23;20007;-90
2022/09/29 08:41:39;;;;;;;3.00;0.50;;;11.90;99.90;;;;;;6068206;23;20058;-90
2022/09/29 08:44:25;;;;;;;6.50;0.65;;;12.10;99.90;;;;;;6067519;23;20041;-88
2022/09/29 08:46:58;;;;;;;3.50;0.75;;;12.20;99.90;;;;;;6069135;23;20439;-89
2022/09/29 08:49:30;;;;;;;3.15;1.02;;;12.40;99.90;;;;;;6068247;23;20015;-89
2022/09/29 08:52:11;;;;;;;2.08;0.52;;;12.50;99.90;;;;;;6070142;23;20062;-90
2022/09/29 08:54:40;;;;;;;4.28;0.63;;;12.50;99.90;;;;;;6069414;23;20163;-90
2022/09/29 08:57:23;;;;;;;4.60;0.80;;;12.60;99.90;;;;;;6091311;23;20153;-88
2022/09/29 08:59:51;;;;;;;4.47;0.82;;;12.80;99.90;;;;;;6066634;23;20077;-90
2022/09/29 09:02:55;;;;;;;3.33;0.60;;;12.90;99.90;;;;;;6069053;23;20006;-89
2022/09/29 09:05:57;;;;;;;2.42;0.65;;;12.90;99.90;;;;;;6067487;23;20007;-89
2022/09/29 09:08:29;;;;;;;3.88;0.93;;;13.00;99.90;;;;;;6067531;23;20481;-90
2022/09/29 09:11:07;;;;;;;2.47;1.35;;;13.00;99.90;;;;;;6067871;23;20002;-88
2022/09/29 09:13:55;;;;;;;6.82;1.10;;;13.00;99.90;;;;;;6068204;23;20038;-91
2022/09/29 09:17:05;;;;;;;1.70;0.70;;;13.00;99.90;;;;;;6067740;23;20462;-89
2022/09/29 09:20:09;;;;;;;7.30;0.80;;;13.10;99.90;;;;;;6038972;23;20011;-88
2022/09/29 09:22:54;;;;;;;2.72;0.60;;;13.10;99.90;;;;;;6091967;23;20442;-89
2022/09/29 09:25:38;;;;;;;3.92;0.95;;;13.20;99.90;;;;;;6092363;23;20014;-90
2022/09/29 09:28:14;;;;;;;2.90;0.50;;;13.10;99.90;;;;;;6069506;23;20006;-91
2022/09/29 09:31:02;;;;;;;2.20;0.60;;;13.10;99.90;;;;;;6070339;23;20019;-91
2022/09/29 09:33:27;;;;;;;2.65;0.45;;;13.20;99.90;;;;;;6043829;23;20011;-92
2022/09/29 09:35:59;;;;;;;3.75;0.98;;;13.40;99.90;;;;;;6068291;23;20074;-91
2022/09/29 09:38:32;;;;;;;0.88;0.40;;;13.50;99.90;;;;;;6042884;23;20006;-90
2022/09/29 09:41:00;;;;;;;2.00;0.45;;;13.50;99.90;;;;;;6042774;23;20154;-90
2022/09/29 09:43:46;;;;;;;2.95;0.77;;;13.60;99.90;;;;;;6067369;23;20014;-90
2022/09/29 09:46:31;;;;;;;3.25;1.23;;;13.70;99.90;;;;;;6041782;23;20026;-90
2022/09/29 09:49:15;;;;;;;6.55;1.13;;;13.80;99.90;;;;;;6041507;23;20017;-92
2022/09/29 09:51:52;;;;;;;2.85;0.80;;;14.00;99.90;;;;;;6043101;23;20427;-92
2022/09/29 09:54:30;;;;;;;4.95;0.70;;;14.30;99.90;;;;;;6042979;23;20017;-92
2022/09/29 09:57:15;;;;;;;1.67;0.30;;;14.60;99.90;;;;;;6042358;23;20062;-92
2022/09/29 10:00:03;;;;;;;3.83;0.63;;;14.90;99.90;;;;;;6069553;23;20023;-90
2022/09/29 10:02:30;;;;;;;1.65;0.40;;;15.20;99.90;;;;;;6068437;23;20003;-91
2022/09/29 10:04:55;;;;;;;2.88;0.38;;;15.40;99.90;;;;;;6067755;23;20007;-91
2022/09/29 10:07:27;;;;;;;4.28;0.85;;;15.60;99.90;;;;;;6067748;23;20046;-92
2022/09/29 10:09:55;;;;;;;3.60;0.73;;;15.80;99.90;;;;;;6067943;23;20006;-92
2022/09/29 10:12:22;;;;;;;1.23;0.40;;;16.00;99.90;;;;;;6067877;23;20058;-93
2022/09/29 10:15:12;;;;;;;0.70;0.70;;;16.20;99.90;;;;;;6044288;23;20007;-92
2022/09/29 10:17:43;;;;;;;2.85;0.55;;;16.50;99.90;;;;;;6068211;23;20006;-90
2022/09/29 10:20:08;;;;;;;;;;;16.70;99.90;;;;;;6043830;23;20026;-91
2022/09/29 10:22:34;;;;;;;0.82;0.32;;;17.00;99.90;;;;;;6068382;23;19924;-91
2022/09/29 10:25:18;;;;;;;1.42;0.32;;;17.10;99.90;;;;;;6042524;23;20011;-92
2022/09/29 10:27:48;;;;;;;1.08;0.30;;;17.30;99.90;;;;;;6042432;23;20021;-91
2022/09/29 10:30:32;;;;;;;2.78;0.50;;;17.50;99.50;;;;;;6067994;23;20015;-91
2022/09/29 10:33:00;;;;;;;2.78;0.40;;;17.60;97.80;;;;;;6067594;23;20688;-89
2022/09/29 10:35:34;;;;;;;2.70;0.68;;;17.60;96.80;;;;;;6042561;23;20007;-91
2022/09/29 10:38:24;;;;;;;0.70;0.50;;;17.60;96.60;;;;;;6042243;23;20003;-90
2022/09/29 10:41:06;;;;;;;3.33;0.50;;;17.70;96.40;;;;;;6012723;23;20019;-91
2022/09/29 10:43:42;;;;;;;2.67;0.60;;;17.80;95.80;;;;;;6042818;23;20023;-90
2022/09/29 10:46:36;;;;;;;1.92;0.40;;;17.80;95.40;;;;;;6067567;23;20007;-91
2022/09/29 10:49:13;;;;;;;1.63;0.50;;;17.70;94.80;;;;;;6067653;23;20007;-90
2022/09/29 10:51:52;;;;;;;0.35;0.30;;;17.50;94.80;;;;;;6067280;23;20011;-92
2022/09/29 10:54:17;;;;;;;1.88;0.50;;;17.30;95.00;;;;;;6068401;23;20006;-89
2022/09/29 10:56:48;;;;;;;0.93;0.52;;;17.10;95.30;;;;;;6043617;23;20014;-91
2022/09/29 10:59:15;;;;;;;3.65;0.40;;;16.90;95.50;;;;;;6068337;23;20002;-91
2022/09/29 11:01:58;;;;;;;5.38;0.55;;;16.80;95.90;;;;;;6042815;23;20086;-91
2022/09/29 11:04:36;;;;;;;1.17;0.35;;;16.60;96.20;;;;;;6042851;23;20086;-90
2022/09/29 11:07:11;;;;;;;2.45;1.17;;;16.40;96.70;;;;;;6067471;23;20019;-91
2022/09/29 11:09:43;;;;;;;1.85;0.80;;;16.30;97.30;;;;;;6068026;23;20053;-92
2022/09/29 11:12:37;;;;;;;3.42;0.63;;;16.20;98.00;;;;;;6043713;23;20081;-91
2022/09/29 11:15:24;;;;;;;3.33;0.95;;;16.00;98.60;;;;;;6039102;23;20038;-92
2022/09/29 11:17:51;;;;;;;3.03;0.50;;;15.80;99.40;;;;;;6042140;23;20011;-91
2022/09/29 11:20:17;;;;;;;3.25;0.85;;;15.70;99.90;;;;;;6046119;23;20023;-91
2022/09/29 11:23:02;;;;;;;2.53;0.65;;;15.60;99.90;;;;;;6068352;23;20436;-91
2022/09/29 11:26:11;;;;;;;2.78;0.80;;;15.60;99.90;;;;;;6040964;23;20050;-91
2022/09/29 11:29:15;;;;;;;6.63;1.02;;;15.50;99.90;;;;;;6026277;23;20010;-88
2022/09/29 11:31:51;;;;;;;2.72;0.60;;;15.30;99.90;;;;;;6027441;23;20066;-91
2022/09/29 11:34:46;;;;;;;3.03;0.47;;;15.30;99.90;;;;;;6048092;23;20007;-91
2022/09/29 11:37:49;;;;;;;1.35;0.80;;;15.20;99.90;;;;;;6042570;23;20010;-91
2022/09/29 11:40:31;;;;;;;1.63;0.73;;;15.20;99.90;;;;;;6041404;23;20010;-90
2022/09/29 11:43:25;;;;;;;2.20;0.60;;;15.10;99.90;;;;;;6041965;23;20014;-90
2022/09/29 11:46:06;;;;;;;5.40;1.42;;;15.00;99.90;;;;;;6042662;23;20049;-92
2022/09/29 11:48:34;;;;;;;;;;;15.00;99.90;;;;;;6041774;23;20015;-91
2022/09/29 11:51:23;;;;;;;1.83;0.70;;;15.00;99.90;;;;;;6042129;23;19916;-92
2022/09/29 11:54:06;;;;;;;1.55;0.77;;;15.00;99.90;;;;;;6042352;23;20030;-90
2022/09/29 11:56:45;;;;;;;1.25;0.63;;;15.00;99.90;;;;;;6042207;23;20089;-91
2022/09/29 11:59:58;;;;;;;1.75;0.70;;;15.00;99.90;;;;;;6043536;23;20059;-90
2022/09/29 12:03:05;;;;;;;0.85;0.50;;;15.10;99.90;;;;;;6032837;23;20011;-89
2022/09/29 12:05:50;;;;;;;1.63;0.75;;;15.20;99.90;;;;;;6067009;23;20087;-92
2022/09/29 12:08:26;;;;;;;3.05;0.60;;;15.30;99.90;;;;;;6042615;23;20018;-93
2022/09/29 12:11:03;;;;;;;3.28;1.05;;;15.60;99.90;;;;;;6042800;23;20007;-92
2022/09/29 12:13:52;;;;;;;0.77;0.50;;;15.90;99.90;;;;;;6042916;23;20010;-92
2022/09/29 12:16:26;;;;;;;1.77;1.13;;;16.10;99.90;;;;;;6043500;23;20037;-92
2022/09/29 12:18:58;;;;;;;2.35;0.70;;;16.40;99.90;;;;;;6067175;23;20015;-92
2022/09/29 12:21:49;;;;;;;2.80;0.70;;;16.50;99.90;;;;;;6045228;23;20150;-93
2022/09/29 12:24:38;;;;;;;1.52;0.70;;;16.60;99.90;;;;;;6047580;23;20007;-92
2022/09/29 12:27:25;;;;;;;1.48;0.60;;;16.60;99.90;;;;;;6053114;23;20030;-93
2022/09/29 12:30:05;;;;;;;4.03;1.33;;;16.50;99.90;;;;;;6069788;23;20035;-92
2022/09/29 12:32:37;;;;;;;2.45;0.47;;;16.40;99.90;;;;;;6084715;23;19994;-93
2022/09/29 12:35:14;;;;;;;2.67;0.70;;;16.20;99.90;;;;;;6088087;23;20066;-94
2022/09/29 12:37:51;;;;;;;1.05;0.47;;;16.10;99.90;;;;;;6083607;23;20030;-92
2022/09/29 12:40:47;;;;;;;2.25;0.77;;;16.00;99.90;;;;;;6096356;23;20006;-92
2022/09/29 12:43:26;;;;;;;7.95;1.17;;;16.00;99.90;;;;;;6069623;23;20090;-92
2022/09/29 12:46:07;;;;;;;3.63;0.77;;;16.00;99.90;;;;;;6068451;23;20436;-91
2022/09/29 12:48:39;;;;;;;1.45;0.88;;;16.00;99.90;;;;;;6069747;23;20006;-91
2022/09/29 12:51:35;;;;;;;2.42;0.70;;;16.10;99.90;;;;;;6069526;23;20010;-92
2022/09/29 12:54:27;;;;;;;5.53;0.77;;;16.10;99.90;;;;;;5982049;24;20036;-92
2022/09/29 12:57:01;;;;;;;2.97;0.77;;;16.20;99.90;;;;;;5981254;24;20012;-93
2022/09/29 12:59:52;;;;;;;2.47;0.80;;;16.20;99.90;;;;;;5957089;24;20012;-92
2022/09/29 13:02:51;;;;;;;1.48;0.68;;;16.20;99.90;;;;;;5957578;24;20008;-92
2022/09/29 13:05:54;;;;;;;2.55;0.70;;;16.10;99.90;;;;;;5957536;24;20083;-92
2022/09/29 13:08:41;;;;;;;2.15;0.70;;;15.90;99.90;;;;;;5979895;24;20087;-90
2022/09/29 13:11:29;;;;;;;3.67;0.77;;;15.80;99.90;;;;;;5958299;24;20040;-90
2022/09/29 13:14:21;;;;;;;2.30;0.80;;;15.70;99.90;;;;;;5960266;24;20012;-91
2022/09/29 13:17:14;;;;;;;3.35;0.93;;;15.60;99.90;;;;;;5957266;24;20607;-90
2022/09/29 13:20:24;;;;;;;3.08;0.70;;;15.50;99.90;;;;;;5980743;24;20008;-90